createdAt,value
2023-05-14T00:00:08.416Z,1.60
2023-05-14T00:02:39.322Z,1.77
2023-05-14T00:05:10.536Z,1.50
2023-05-14T00:07:39.127Z,1.88
2023-05-14T00:10:08.696Z,1.58
2023-05-14T00:12:37.388Z,2.08
2023-05-14T00:15:09.476Z,1.90
2023-05-14T00:17:38.357Z,1.95
2023-05-14T00:20:08.153Z,1.50
2023-05-14T00:22:38.340Z,1.88
2023-05-14T00:25:08.480Z,1.98
2023-05-14T00:27:37.886Z,1.63
2023-05-14T00:30:07.986Z,2.40
2023-05-14T00:32:36.636Z,1.95
2023-05-14T00:35:05.532Z,1.92
2023-05-14T00:37:34.189Z,1.98
2023-05-14T00:40:06.898Z,1.70
2023-05-14T00:42:35.765Z,1.70
2023-05-14T00:45:04.322Z,2.00
2023-05-14T00:47:35.369Z,1.83
2023-05-14T00:50:05.290Z,1.83
2023-05-14T00:52:34.290Z,1.95
2023-05-14T00:55:08.536Z,2.00
2023-05-14T00:57:37.789Z,1.80
2023-05-14T01:00:09.026Z,2.53
2023-05-14T01:02:37.923Z,1.77
2023-05-14T01:05:08.935Z,2.00
2023-05-14T01:07:43.009Z,1.77
2023-05-14T01:10:18.866Z,1.90
2023-05-14T01:12:54.570Z,1.80
2023-05-14T01:15:27.000Z,1.80
2023-05-14T01:17:58.094Z,2.20
2023-05-14T01:20:27.607Z,1.70
2023-05-14T01:22:57.624Z,2.00
2023-05-14T01:25:27.724Z,2.10
2023-05-14T01:28:02.881Z,1.90
2023-05-14T01:30:34.104Z,2.03
2023-05-14T01:33:07.453Z,1.83
2023-05-14T01:35:36.811Z,1.80
2023-05-14T01:38:09.162Z,1.80
2023-05-14T01:40:40.805Z,1.92
2023-05-14T01:43:10.097Z,1.70
2023-05-14T01:45:38.761Z,1.70
2023-05-14T01:48:07.885Z,2.28
2023-05-14T01:50:36.663Z,1.85
2023-05-14T01:53:06.709Z,2.00
2023-05-14T01:55:35.552Z,1.63
2023-05-14T01:58:04.138Z,2.00
2023-05-14T02:00:33.132Z,2.10
2023-05-14T02:03:01.825Z,1.80
2023-05-14T02:05:31.038Z,2.00
2023-05-14T02:07:59.500Z,2.13
2023-05-14T02:10:31.122Z,1.88
2023-05-14T02:12:59.663Z,2.10
2023-05-14T02:15:31.039Z,1.83
2023-05-14T02:18:00.478Z,1.50
2023-05-14T02:20:29.516Z,1.80
2023-05-14T02:22:58.391Z,2.00
2023-05-14T02:25:26.807Z,2.08
2023-05-14T02:27:56.725Z,1.83
2023-05-14T02:30:25.572Z,1.80
2023-05-14T02:32:54.448Z,1.80
2023-05-14T02:35:22.900Z,1.90
2023-05-14T02:37:51.528Z,1.50
2023-05-14T02:40:20.137Z,1.70
2023-05-14T02:42:49.380Z,1.65
2023-05-14T02:45:19.123Z,1.70
2023-05-14T02:47:47.820Z,1.70
2023-05-14T02:50:17.730Z,1.98
2023-05-14T02:52:48.164Z,1.70
2023-05-14T02:55:17.035Z,1.83
2023-05-14T02:57:45.513Z,1.70
2023-05-14T03:00:14.820Z,1.80
2023-05-14T03:02:45.634Z,1.60
2023-05-14T03:05:14.489Z,1.73
2023-05-14T03:07:43.106Z,2.05
2023-05-14T03:10:14.792Z,1.42
2023-05-14T03:12:43.619Z,1.90
2023-05-14T03:15:12.765Z,1.67
2023-05-14T03:17:41.434Z,1.63
2023-05-14T03:20:12.841Z,2.10
2023-05-14T03:22:41.421Z,1.85
2023-05-14T03:25:10.504Z,1.73
2023-05-14T03:27:39.069Z,1.77
2023-05-14T03:30:08.885Z,1.52
2023-05-14T03:32:39.002Z,1.67
2023-05-14T03:35:08.603Z,1.42
2023-05-14T03:37:38.637Z,1.60
2023-05-14T03:40:08.660Z,1.70
2023-05-14T03:42:38.514Z,1.60
2023-05-14T03:45:08.168Z,1.40
2023-05-14T03:47:38.569Z,1.67
2023-05-14T03:50:09.219Z,1.77
2023-05-14T03:52:39.159Z,1.60
2023-05-14T03:55:08.645Z,1.98
2023-05-14T03:57:37.976Z,1.20
2023-05-14T04:00:07.363Z,1.50
2023-05-14T04:02:46.162Z,1.58
2023-05-14T04:05:15.136Z,2.05
2023-05-14T04:07:45.922Z,1.60
2023-05-14T04:10:15.133Z,1.80
2023-05-14T04:12:43.483Z,1.83
2023-05-14T04:15:12.862Z,1.70
2023-05-14T04:17:42.060Z,1.75
2023-05-14T04:20:11.449Z,1.80
2023-05-14T04:22:39.894Z,1.60
2023-05-14T04:25:10.362Z,1.52
2023-05-14T04:27:38.657Z,1.50
2023-05-14T04:30:11.724Z,1.75
2023-05-14T04:32:40.126Z,1.45
2023-05-14T04:35:10.771Z,1.40
2023-05-14T04:37:39.370Z,1.35
2023-05-14T04:40:11.434Z,1.00
2023-05-14T04:42:40.375Z,1.60
2023-05-14T04:45:09.613Z,1.52
2023-05-14T04:47:38.148Z,1.60
2023-05-14T04:50:08.882Z,1.58
2023-05-14T04:52:37.340Z,1.50
2023-05-14T04:55:06.755Z,1.63
2023-05-14T04:57:36.876Z,1.73
2023-05-14T05:00:10.157Z,1.65
2023-05-14T05:02:38.679Z,1.70
2023-05-14T05:05:07.718Z,1.73
2023-05-14T05:07:36.382Z,1.63
2023-05-14T05:10:04.996Z,1.63
2023-05-14T05:12:36.543Z,1.55
2023-05-14T05:15:08.071Z,1.70
2023-05-14T05:17:38.342Z,1.48
2023-05-14T05:20:11.061Z,1.38
2023-05-14T05:22:39.537Z,1.40
2023-05-14T05:25:09.240Z,1.00
2023-05-14T05:27:41.538Z,1.33
2023-05-14T05:30:11.369Z,1.35
2023-05-14T05:32:39.705Z,1.95
2023-05-14T05:35:08.802Z,1.70
2023-05-14T05:37:37.149Z,1.23
2023-05-14T05:40:07.002Z,1.30
2023-05-14T05:42:35.580Z,1.65
2023-05-14T05:45:07.705Z,1.20
2023-05-14T05:47:36.743Z,1.20
2023-05-14T05:50:05.672Z,1.27
2023-05-14T05:52:34.308Z,0.70
2023-05-14T05:55:05.955Z,1.17
2023-05-14T05:57:36.432Z,1.08
2023-05-14T06:00:14.269Z,1.08
2023-05-14T06:02:44.428Z,1.20
2023-05-14T06:05:13.345Z,1.17
2023-05-14T06:07:41.817Z,1.20
2023-05-14T06:10:10.383Z,1.38
2023-05-14T06:12:39.190Z,1.50
2023-05-14T06:15:11.633Z,1.23
2023-05-14T06:17:40.552Z,1.30
2023-05-14T06:20:09.981Z,1.60
2023-05-14T06:22:38.937Z,1.50
2023-05-14T06:25:08.114Z,1.20
2023-05-14T06:27:36.750Z,1.30
2023-05-14T06:30:09.159Z,1.40
2023-05-14T06:32:39.192Z,1.08
2023-05-14T06:35:08.963Z,1.40
2023-05-14T06:37:37.654Z,1.40
2023-05-14T06:40:07.491Z,1.10
2023-05-14T06:42:38.902Z,0.80
2023-05-14T06:45:08.662Z,0.90
2023-05-14T06:47:38.603Z,1.20
2023-05-14T06:50:09.512Z,1.08
2023-05-14T06:52:43.652Z,1.10
2023-05-14T06:55:12.185Z,1.30
2023-05-14T06:57:41.052Z,1.13
2023-05-14T07:00:10.564Z,0.98
2023-05-14T07:02:40.372Z,0.90
2023-05-14T07:05:09.816Z,0.70
2023-05-14T07:07:38.180Z,0.65
2023-05-14T07:10:08.230Z,0.65
2023-05-14T07:12:36.639Z,0.70
2023-05-14T07:15:05.880Z,0.82
2023-05-14T07:17:35.728Z,0.90
2023-05-14T07:20:07.104Z,0.82
2023-05-14T07:22:35.768Z,0.98
2023-05-14T07:25:06.539Z,0.60
2023-05-14T07:27:37.451Z,0.80
2023-05-14T07:30:09.930Z,0.80
2023-05-14T07:32:38.703Z,0.82
2023-05-14T07:35:09.717Z,1.02
2023-05-14T07:37:38.603Z,0.60
2023-05-14T07:40:08.414Z,1.05
2023-05-14T07:42:40.099Z,0.90
2023-05-14T07:45:10.218Z,0.90
2023-05-14T07:47:40.015Z,1.10
2023-05-14T07:50:11.527Z,1.05
2023-05-14T07:52:40.070Z,0.90
2023-05-14T07:55:09.226Z,1.10
2023-05-14T07:57:38.555Z,0.80
2023-05-14T08:00:09.166Z,1.10
2023-05-14T08:02:44.362Z,0.75
2023-05-14T08:05:14.686Z,0.73
2023-05-14T08:07:43.467Z,0.90
2023-05-14T08:10:12.343Z,0.90
2023-05-14T08:12:40.945Z,0.70
2023-05-14T08:15:10.629Z,0.55
2023-05-14T08:17:39.406Z,0.70
2023-05-14T08:20:12.070Z,0.80
2023-05-14T08:22:41.954Z,0.80
2023-05-14T08:25:11.073Z,0.90
2023-05-14T08:27:39.556Z,0.80
2023-05-14T08:30:09.229Z,1.00
2023-05-14T08:32:38.767Z,1.17
2023-05-14T08:35:11.392Z,1.00
2023-05-14T08:37:41.649Z,0.82
2023-05-14T08:40:11.084Z,1.08
2023-05-14T08:42:41.966Z,1.10
2023-05-14T08:45:15.004Z,1.02
2023-05-14T08:47:44.400Z,1.00
2023-05-14T08:50:12.928Z,0.98
2023-05-14T08:52:43.029Z,0.88
2023-05-14T08:55:13.200Z,1.08
2023-05-14T08:57:41.802Z,0.90
2023-05-14T09:00:15.612Z,1.08
2023-05-14T09:02:48.631Z,1.17
2023-05-14T09:05:18.947Z,1.17
2023-05-14T09:07:50.447Z,1.10
2023-05-14T09:10:19.007Z,1.30
2023-05-14T09:12:49.296Z,1.27
2023-05-14T09:15:17.926Z,1.13
2023-05-14T09:17:48.288Z,1.10
2023-05-14T09:20:17.340Z,1.02
2023-05-14T09:22:45.793Z,1.05
2023-05-14T09:25:15.794Z,1.58
2023-05-14T09:27:44.179Z,1.38
2023-05-14T09:30:17.579Z,1.10
2023-05-14T09:32:46.426Z,1.00
2023-05-14T09:35:17.764Z,0.98
2023-05-14T09:37:48.261Z,2.20
2023-05-14T09:40:19.525Z,1.00
2023-05-14T09:42:50.579Z,0.73
2023-05-14T09:45:19.208Z,0.73
2023-05-14T09:47:47.869Z,1.20
2023-05-14T09:50:18.661Z,1.08
2023-05-14T09:52:47.064Z,0.95
2023-05-14T09:55:17.115Z,1.20
2023-05-14T09:57:47.673Z,1.90
2023-05-14T10:00:17.184Z,1.25
2023-05-14T10:02:47.320Z,1.10
2023-05-14T10:05:16.317Z,1.10
2023-05-14T10:07:49.233Z,0.75
2023-05-14T10:10:21.152Z,1.20
2023-05-14T10:12:53.518Z,0.93
2023-05-14T10:15:25.094Z,0.70
2023-05-14T10:17:59.255Z,1.00
2023-05-14T10:20:28.506Z,0.80
2023-05-14T10:22:57.372Z,0.80
2023-05-14T10:25:27.389Z,0.80
2023-05-14T10:27:56.099Z,0.88
2023-05-14T10:30:25.390Z,0.68
2023-05-14T10:33:08.536Z,0.77
2023-05-14T10:35:52.461Z,0.65
2023-05-14T10:38:24.462Z,1.00
2023-05-14T10:40:57.025Z,0.70
2023-05-14T10:43:26.834Z,0.80
2023-05-14T10:45:55.348Z,0.80
2023-05-14T10:48:23.996Z,0.63
2023-05-14T10:50:52.843Z,0.63
2023-05-14T10:53:22.473Z,0.63
2023-05-14T10:55:50.851Z,0.85
2023-05-14T10:58:20.735Z,1.05
2023-05-14T11:00:49.881Z,1.00
2023-05-14T11:03:19.763Z,1.00
2023-05-14T11:05:48.364Z,0.90
2023-05-14T11:08:19.373Z,0.77
2023-05-14T11:10:47.950Z,0.80
2023-05-14T11:13:18.919Z,1.17
2023-05-14T11:15:49.460Z,1.20
2023-05-14T11:18:28.093Z,0.93
2023-05-14T11:20:59.815Z,0.70
2023-05-14T11:23:29.065Z,1.85
2023-05-14T11:25:58.018Z,1.35
2023-05-14T11:28:27.979Z,1.02
2023-05-14T11:30:57.735Z,0.75
2023-05-14T11:33:29.043Z,0.90
2023-05-14T11:35:57.508Z,2.40
2023-05-14T11:38:25.877Z,1.35
2023-05-14T11:40:55.115Z,0.88
2023-05-14T11:43:23.960Z,1.13
2023-05-14T11:45:57.676Z,0.90
2023-05-14T11:48:27.605Z,0.82
2023-05-14T11:50:56.047Z,1.00
2023-05-14T11:53:31.694Z,1.10
2023-05-14T11:56:00.271Z,0.73
2023-05-14T11:58:28.743Z,0.63
2023-05-14T12:01:01.686Z,0.88
2023-05-14T12:03:33.086Z,0.73
2023-05-14T12:06:03.668Z,0.88
2023-05-14T12:08:33.112Z,0.80
2023-05-14T12:11:02.153Z,0.70
2023-05-14T12:13:31.373Z,0.70
2023-05-14T12:16:02.398Z,0.90
2023-05-14T12:18:34.003Z,0.60
2023-05-14T12:21:08.469Z,0.65
2023-05-14T12:23:40.211Z,0.65
2023-05-14T12:26:10.418Z,0.77
2023-05-14T12:28:43.647Z,0.60
2023-05-14T12:31:12.812Z,0.65
2023-05-14T12:33:42.663Z,0.70
2023-05-14T12:36:21.339Z,1.35
2023-05-14T12:38:51.289Z,0.70
2023-05-14T12:41:19.959Z,0.77
2023-05-14T12:43:50.063Z,0.60
2023-05-14T12:46:18.568Z,0.60
2023-05-14T12:48:49.042Z,0.50
2023-05-14T12:51:18.757Z,0.80
2023-05-14T12:53:47.224Z,0.57
2023-05-14T12:56:16.152Z,0.80
2023-05-14T12:58:46.701Z,1.00
2023-05-14T13:01:15.302Z,0.77
2023-05-14T13:03:43.835Z,0.43
2023-05-14T13:06:14.067Z,1.10
2023-05-14T13:08:42.750Z,1.42
2023-05-14T13:11:11.631Z,0.60
2023-05-14T13:13:40.176Z,0.50
2023-05-14T13:16:16.884Z,0.60
2023-05-14T13:18:46.150Z,0.80
2023-05-14T13:21:16.054Z,0.63
2023-05-14T13:23:44.655Z,0.75
2023-05-14T13:26:13.110Z,0.70
2023-05-14T13:28:41.751Z,1.05
2023-05-14T13:31:12.118Z,0.90
2023-05-14T13:33:42.891Z,1.10
2023-05-14T13:36:14.880Z,0.65
2023-05-14T13:38:45.902Z,0.95
2023-05-14T13:41:17.056Z,0.82
2023-05-14T13:43:45.576Z,0.77
2023-05-14T13:46:13.934Z,0.98
2023-05-14T13:48:42.526Z,0.90
2023-05-14T13:51:10.861Z,0.90
2023-05-14T13:53:39.968Z,0.98
2023-05-14T13:56:10.042Z,1.00
2023-05-14T13:58:38.542Z,0.90
2023-05-14T14:01:07.490Z,0.90
2023-05-14T14:03:36.229Z,1.00
2023-05-14T14:06:05.015Z,1.48
2023-05-14T14:08:33.651Z,1.17
2023-05-14T14:11:02.236Z,1.00
2023-05-14T14:13:32.184Z,0.90
2023-05-14T14:16:00.576Z,0.80
2023-05-14T14:18:31.594Z,0.70
2023-05-14T14:21:00.268Z,0.60
2023-05-14T14:23:28.730Z,0.90
2023-05-14T14:25:57.426Z,0.93
2023-05-14T14:28:26.237Z,0.85
2023-05-14T14:30:56.323Z,0.70
2023-05-14T14:33:24.960Z,0.80
2023-05-14T14:35:53.566Z,0.70
2023-05-14T14:38:21.857Z,1.27
2023-05-14T14:40:50.460Z,0.80
2023-05-14T14:43:19.132Z,0.70
2023-05-14T14:45:48.969Z,0.70
2023-05-14T14:48:28.271Z,0.77
2023-05-14T14:50:56.906Z,0.90
2023-05-14T14:53:26.097Z,0.98
2023-05-14T14:55:55.160Z,0.88
2023-05-14T14:58:23.878Z,1.13
2023-05-14T15:00:53.973Z,1.20
2023-05-14T15:03:22.921Z,1.10
2023-05-14T15:05:53.604Z,0.80
2023-05-14T15:08:25.793Z,1.08
2023-05-14T15:10:54.382Z,0.80
2023-05-14T15:13:24.108Z,0.98
2023-05-14T15:15:55.773Z,0.90
2023-05-14T15:18:24.343Z,1.20
2023-05-14T15:20:55.793Z,1.00
2023-05-14T15:23:24.402Z,1.10
2023-05-14T15:25:52.845Z,0.90
2023-05-14T15:28:21.425Z,0.90
2023-05-14T15:30:50.372Z,0.93
2023-05-14T15:33:23.671Z,1.00
2023-05-14T15:35:53.802Z,1.40
2023-05-14T15:38:22.207Z,1.45
2023-05-14T15:40:52.698Z,1.27
2023-05-14T15:43:23.206Z,3.03
2023-05-14T15:45:53.509Z,2.20
2023-05-14T15:48:21.949Z,0.90
2023-05-14T15:50:51.782Z,0.98
2023-05-14T15:53:21.854Z,1.10
2023-05-14T15:55:50.520Z,1.20
2023-05-14T15:58:18.925Z,1.20
2023-05-14T16:00:47.485Z,1.10
2023-05-14T16:03:15.920Z,1.27
2023-05-14T16:05:45.197Z,0.95
2023-05-14T16:08:13.605Z,1.05
2023-05-14T16:10:43.728Z,1.48
2023-05-14T16:13:12.196Z,1.20
2023-05-14T16:15:41.121Z,1.10
2023-05-14T16:18:09.785Z,1.40
2023-05-14T16:20:38.354Z,1.50
2023-05-14T16:23:06.690Z,1.10
2023-05-14T16:25:35.175Z,1.13
2023-05-14T16:28:05.569Z,1.30
2023-05-14T16:30:34.374Z,1.63
2023-05-14T16:33:02.718Z,1.60
2023-05-14T16:35:31.257Z,1.17
2023-05-14T16:37:59.850Z,1.38
2023-05-14T16:40:28.380Z,2.03
2023-05-14T16:42:56.938Z,1.40
2023-05-14T16:45:29.133Z,1.25
2023-05-14T16:47:58.478Z,1.10
2023-05-14T16:50:26.977Z,1.40
2023-05-14T16:52:55.633Z,1.27
2023-05-14T16:55:24.486Z,1.30
2023-05-14T16:57:53.059Z,1.83
2023-05-14T17:00:21.623Z,1.50
2023-05-14T17:02:54.319Z,2.05
2023-05-14T17:05:23.164Z,2.35
2023-05-14T17:07:51.989Z,1.90
2023-05-14T17:10:20.634Z,2.10
2023-05-14T17:12:48.998Z,2.30
2023-05-14T17:15:17.630Z,2.42
2023-05-14T17:17:46.416Z,2.65
2023-05-14T17:20:17.097Z,2.78
2023-05-14T17:22:48.389Z,2.58
2023-05-14T17:25:20.127Z,3.00
2023-05-14T17:27:49.033Z,2.85
2023-05-14T17:30:17.674Z,2.67
2023-05-14T17:32:51.101Z,2.83
2023-05-14T17:35:21.528Z,2.17
2023-05-14T17:37:50.090Z,3.05
2023-05-14T17:40:18.709Z,2.85
2023-05-14T17:42:47.197Z,3.00
2023-05-14T17:45:20.615Z,3.25
2023-05-14T17:47:50.550Z,2.47
2023-05-14T17:50:19.294Z,2.92
2023-05-14T17:52:49.186Z,3.05
2023-05-14T17:55:19.323Z,2.50
2023-05-14T17:57:49.559Z,2.75
2023-05-14T18:00:18.350Z,3.15
2023-05-14T18:02:47.278Z,3.08
2023-05-14T18:05:15.727Z,2.92
2023-05-14T18:07:44.186Z,2.17
2023-05-14T18:10:14.243Z,2.33
2023-05-14T18:12:44.641Z,3.15
2023-05-14T18:15:15.364Z,2.28
2023-05-14T18:17:43.930Z,2.83
2023-05-14T18:20:15.991Z,2.10
2023-05-14T18:22:47.643Z,2.50
2023-05-14T18:25:17.781Z,2.30
2023-05-14T18:27:47.043Z,2.53
2023-05-14T18:30:17.530Z,2.28
2023-05-14T18:32:46.695Z,2.25
2023-05-14T18:35:15.332Z,2.38
2023-05-14T18:37:43.847Z,2.25
2023-05-14T18:40:16.869Z,2.00
2023-05-14T18:45:16.612Z,1.90
2023-05-14T18:47:45.519Z,2.40
2023-05-14T18:50:14.219Z,2.58
2023-05-14T18:52:42.755Z,2.78
2023-05-14T18:55:11.289Z,2.25
2023-05-14T18:57:41.053Z,2.10
2023-05-14T19:00:12.805Z,2.30
2023-05-14T19:02:41.566Z,2.25
2023-05-14T19:05:10.252Z,2.45
2023-05-14T19:07:43.034Z,2.33
2023-05-14T19:10:11.935Z,2.33
2023-05-14T19:12:40.268Z,2.47
2023-05-14T19:15:11.597Z,2.90
2023-05-14T19:17:43.066Z,3.15
2023-05-14T19:20:12.663Z,3.05
2023-05-14T19:22:41.248Z,2.67
2023-05-14T19:25:11.217Z,2.88
2023-05-14T19:27:39.856Z,2.38
2023-05-14T19:30:14.774Z,2.72
2023-05-14T19:32:43.544Z,2.78
2023-05-14T19:35:12.200Z,2.60
2023-05-14T19:37:43.556Z,2.22
2023-05-14T19:40:12.581Z,2.20
2023-05-14T19:42:41.033Z,2.38
2023-05-14T19:45:10.571Z,2.85
2023-05-14T19:47:40.597Z,2.53
2023-05-14T19:50:10.144Z,2.72
2023-05-14T19:52:39.004Z,2.72
2023-05-14T19:55:08.187Z,2.33
2023-05-14T19:57:40.019Z,2.40
2023-05-14T20:00:12.250Z,2.30
2023-05-14T20:02:43.274Z,2.42
2023-05-14T20:05:12.351Z,2.20
2023-05-14T20:07:40.950Z,2.30
2023-05-14T20:10:10.509Z,2.25
2023-05-14T20:12:38.880Z,2.70
2023-05-14T20:15:08.493Z,2.35
2023-05-14T20:17:39.598Z,2.50
2023-05-14T20:20:11.945Z,2.10
2023-05-14T20:22:40.427Z,2.20
2023-05-14T20:25:10.174Z,2.30
2023-05-14T20:27:41.172Z,2.10
2023-05-14T20:30:10.745Z,2.53
2023-05-14T20:32:39.109Z,2.65
2023-05-14T20:35:10.034Z,2.78
2023-05-14T20:37:38.497Z,2.67
2023-05-14T20:40:10.530Z,2.33
2023-05-14T20:42:39.467Z,2.85
2023-05-14T20:45:08.934Z,2.45
2023-05-14T20:47:37.374Z,3.20
2023-05-14T20:50:06.340Z,3.08
2023-05-14T20:52:36.646Z,3.15
2023-05-14T20:55:05.625Z,2.80
2023-05-14T20:57:35.386Z,2.97
2023-05-14T21:00:07.088Z,2.53
2023-05-14T21:02:39.451Z,2.50
2023-05-14T21:05:08.844Z,2.80
2023-05-14T21:07:39.463Z,2.90
2023-05-14T21:10:09.898Z,3.08
2023-05-14T21:12:42.852Z,2.85
2023-05-14T21:15:12.981Z,2.90
2023-05-14T21:17:41.458Z,2.90
2023-05-14T21:20:12.026Z,2.47
2023-05-14T21:22:41.936Z,3.22
2023-05-14T21:25:13.339Z,3.00
2023-05-14T21:27:42.166Z,2.88
2023-05-14T21:30:14.392Z,3.30
2023-05-14T21:32:43.078Z,3.58
2023-05-14T21:35:11.764Z,3.30
2023-05-14T21:37:41.982Z,2.92
2023-05-14T21:40:14.026Z,3.10
2023-05-14T21:42:42.633Z,2.97
2023-05-14T21:45:11.654Z,3.28
2023-05-14T21:47:43.401Z,3.53
2023-05-14T21:50:13.169Z,2.50
2023-05-14T21:52:43.022Z,3.22
2023-05-14T21:55:12.006Z,2.90
2023-05-14T21:57:40.439Z,3.15
2023-05-14T22:00:13.270Z,3.47
2023-05-14T22:02:43.941Z,2.72
2023-05-14T22:05:12.577Z,3.30
2023-05-14T22:07:42.648Z,3.20
2023-05-14T22:10:12.020Z,3.58
2023-05-14T22:12:40.570Z,3.25
2023-05-14T22:15:10.277Z,3.35
2023-05-14T22:17:39.171Z,3.38
2023-05-14T22:20:09.567Z,3.40
2023-05-14T22:22:38.504Z,3.42
2023-05-14T22:25:09.630Z,3.30
2023-05-14T22:27:38.301Z,2.88
2023-05-14T22:30:08.138Z,3.40
2023-05-14T22:32:36.645Z,3.33
2023-05-14T22:35:05.527Z,3.20
2023-05-14T22:37:34.158Z,3.10
2023-05-14T22:40:05.155Z,3.70
2023-05-14T22:42:35.535Z,3.10
2023-05-14T22:45:04.137Z,3.50
2023-05-14T22:47:33.621Z,3.03
2023-05-14T22:50:02.241Z,3.47
2023-05-14T22:52:32.823Z,3.20
2023-05-14T22:55:01.818Z,3.72
2023-05-14T22:57:32.831Z,3.50
2023-05-14T23:00:02.650Z,3.63
2023-05-14T23:02:35.393Z,4.35
2023-05-14T23:05:04.020Z,3.38
2023-05-14T23:07:32.665Z,3.47
2023-05-14T23:10:02.203Z,3.75
2023-05-14T23:12:33.224Z,3.72
2023-05-14T23:15:03.414Z,3.50
2023-05-14T23:17:35.862Z,3.88
2023-05-14T23:20:06.120Z,4.07
2023-05-14T23:22:34.910Z,4.35
2023-05-14T23:25:06.372Z,4.35
2023-05-14T23:27:35.216Z,3.67
2023-05-14T23:30:06.016Z,4.55
2023-05-14T23:32:34.924Z,4.85
2023-05-14T23:35:03.438Z,4.88
2023-05-14T23:37:33.829Z,4.82
2023-05-14T23:40:02.722Z,5.22
2023-05-14T23:42:36.039Z,4.70
2023-05-14T23:45:06.602Z,4.72
2023-05-14T23:47:35.569Z,5.82
2023-05-14T23:50:04.701Z,6.15
2023-05-14T23:52:33.323Z,5.53
2023-05-14T23:55:01.944Z,5.53
2023-05-14T23:57:33.456Z,6.13
